createdAt,value
2019-05-29T00:00:21.908Z,70.04
2019-05-29T00:02:47.759Z,70.50
2019-05-29T00:05:14.276Z,69.88
2019-05-29T00:07:40.258Z,70.79
2019-05-29T00:10:08.955Z,69.65
2019-05-29T00:12:35.236Z,70.16
2019-05-29T00:15:01.111Z,70.37
2019-05-29T00:17:26.981Z,70.79
2019-05-29T00:19:52.843Z,70.19
2019-05-29T00:22:18.686Z,71.20
2019-05-29T00:24:44.559Z,71.62
2019-05-29T00:27:13.791Z,71.52
2019-05-29T00:29:38.213Z,70.91
2019-05-29T00:32:04.071Z,69.72
2019-05-29T00:34:29.931Z,70.07
2019-05-29T00:36:55.778Z,69.66
2019-05-29T00:39:21.644Z,69.86
2019-05-29T00:41:47.610Z,69.46
2019-05-29T00:44:13.466Z,69.47
2019-05-29T00:46:39.308Z,70.18
2019-05-29T00:49:05.180Z,70.50
2019-05-29T00:51:31.028Z,71.52
2019-05-29T00:53:56.873Z,71.75
2019-05-29T00:56:22.757Z,70.10
2019-05-29T00:58:48.597Z,71.23
2019-05-29T01:01:15.481Z,71.67
2019-05-29T01:03:41.436Z,71.67
2019-05-29T01:06:07.286Z,70.78
2019-05-29T01:08:33.135Z,70.50
2019-05-29T01:10:59.022Z,70.89
2019-05-29T01:13:24.877Z,71.33
2019-05-29T01:15:50.736Z,70.59
2019-05-29T01:18:17.623Z,70.92
2019-05-29T01:20:43.752Z,71.03
2019-05-29T01:23:09.620Z,71.44
2019-05-29T01:25:35.490Z,70.72
2019-05-29T01:28:02.358Z,70.78
2019-05-29T01:30:28.208Z,72.15
2019-05-29T01:32:54.128Z,71.46
2019-05-29T01:35:20.184Z,70.65
2019-05-29T01:37:46.168Z,70.55
2019-05-29T01:40:20.016Z,70.92
2019-05-29T01:42:40.683Z,71.05
2019-05-29T01:45:08.479Z,70.40
2019-05-29T01:47:34.619Z,70.67
2019-05-29T01:50:00.476Z,71.65
2019-05-29T01:52:26.329Z,71.03
2019-05-29T01:54:52.199Z,71.91
2019-05-29T01:57:18.070Z,72.96
2019-05-29T01:59:44.024Z,71.82
2019-05-29T02:02:09.881Z,72.60
2019-05-29T02:04:35.728Z,72.49
2019-05-29T02:07:01.593Z,72.04
2019-05-29T02:09:28.354Z,72.14
2019-05-29T02:11:54.335Z,72.23
2019-05-29T02:14:20.529Z,71.91
2019-05-29T02:16:46.454Z,71.75
2019-05-29T02:19:12.315Z,72.61
2019-05-29T02:21:38.157Z,71.48
2019-05-29T02:24:04.022Z,72.16
2019-05-29T02:26:29.881Z,71.45
2019-05-29T02:28:55.751Z,71.89
2019-05-29T02:31:22.382Z,71.96
2019-05-29T02:33:49.369Z,71.73
2019-05-29T02:36:15.247Z,71.74
2019-05-29T02:38:41.131Z,72.54
2019-05-29T02:41:06.998Z,73.41
2019-05-29T02:43:32.860Z,72.59
2019-05-29T02:45:58.716Z,72.31
2019-05-29T02:48:25.051Z,72.86
2019-05-29T02:50:51.542Z,71.92
2019-05-29T02:53:17.397Z,72.48
2019-05-29T02:55:43.242Z,71.73
2019-05-29T02:58:09.108Z,71.52
2019-05-29T03:00:54.744Z,72.00
2019-05-29T03:03:23.529Z,71.85
2019-05-29T03:05:51.403Z,72.53
2019-05-29T03:08:17.367Z,72.57
2019-05-29T03:10:43.225Z,72.42
2019-05-29T03:13:09.067Z,72.21
2019-05-29T03:15:34.925Z,71.81
2019-05-29T03:18:00.788Z,71.72
2019-05-29T03:20:27.989Z,71.10
2019-05-29T03:22:54.106Z,71.70
2019-05-29T03:25:19.990Z,73.46
2019-05-29T03:27:45.840Z,73.93
2019-05-29T03:30:12.783Z,73.07
2019-05-29T03:32:46.736Z,72.36
2019-05-29T03:35:06.612Z,72.94
2019-05-29T03:37:32.949Z,72.69
2019-05-29T03:40:00.159Z,72.36
2019-05-29T03:42:26.428Z,72.54
2019-05-29T03:44:52.376Z,72.02
2019-05-29T03:47:18.233Z,72.16
2019-05-29T03:49:44.084Z,71.78
2019-05-29T03:52:09.966Z,72.47
2019-05-29T03:54:35.939Z,72.60
2019-05-29T03:57:01.792Z,72.81
2019-05-29T03:59:28.599Z,73.15
2019-05-29T04:01:54.539Z,71.96
2019-05-29T04:04:21.533Z,73.60
2019-05-29T04:06:47.686Z,74.02
2019-05-29T04:09:13.648Z,72.72
2019-05-29T04:11:40.398Z,73.29
2019-05-29T04:14:06.259Z,72.42
2019-05-29T04:16:54.090Z,72.66
2019-05-29T04:19:01.629Z,72.90
2019-05-29T04:21:29.726Z,72.37
2019-05-29T04:23:56.130Z,74.09
2019-05-29T04:26:23.487Z,74.77
2019-05-29T04:28:49.754Z,74.90
2019-05-29T04:31:15.917Z,74.70
2019-05-29T04:33:41.772Z,74.92
2019-05-29T04:36:07.621Z,74.47
2019-05-29T04:38:35.521Z,74.55
2019-05-29T04:41:01.272Z,74.09
2019-05-29T04:43:28.607Z,74.43
2019-05-29T04:45:54.696Z,74.60
2019-05-29T04:48:20.549Z,74.32
2019-05-29T04:50:46.400Z,74.01
2019-05-29T04:53:12.255Z,73.65
2019-05-29T04:55:39.012Z,72.92
2019-05-29T04:58:04.968Z,73.87
2019-05-29T05:00:31.002Z,73.86
2019-05-29T05:02:56.983Z,75.21
2019-05-29T05:05:22.830Z,74.25
2019-05-29T05:07:48.679Z,73.75
2019-05-29T05:10:18.341Z,74.58
2019-05-29T05:12:44.218Z,74.05
2019-05-29T05:15:10.762Z,74.35
2019-05-29T05:17:37.925Z,74.02
2019-05-29T05:20:04.774Z,73.84
2019-05-29T05:22:31.982Z,73.03
2019-05-29T05:24:57.982Z,71.06
2019-05-29T05:27:23.846Z,69.76
2019-05-29T05:29:49.742Z,69.24
2019-05-29T05:32:15.599Z,69.20
2019-05-29T05:34:42.295Z,68.48
2019-05-29T05:37:08.148Z,67.57
2019-05-29T05:39:35.171Z,68.15
2019-05-29T05:42:01.215Z,67.24
2019-05-29T05:44:27.058Z,67.64
2019-05-29T05:46:52.918Z,67.49
2019-05-29T05:49:18.769Z,67.18
2019-05-29T05:51:44.851Z,66.28
2019-05-29T05:54:10.793Z,66.16
2019-05-29T05:56:37.713Z,65.79
2019-05-29T05:59:03.713Z,64.82
2019-05-29T06:01:29.569Z,64.61
2019-05-29T06:03:55.497Z,63.54
2019-05-29T06:06:21.361Z,63.11
2019-05-29T06:08:47.224Z,62.42
2019-05-29T06:11:13.071Z,60.90
2019-05-29T06:13:38.930Z,61.09
2019-05-29T06:16:04.803Z,60.96
2019-05-29T06:18:30.650Z,61.16
2019-05-29T06:20:56.515Z,61.39
2019-05-29T06:23:22.386Z,60.01
2019-05-29T06:25:48.254Z,59.19
2019-05-29T06:28:14.216Z,58.50
2019-05-29T06:30:41.233Z,58.37
2019-05-29T06:33:08.079Z,58.24
2019-05-29T06:35:35.855Z,57.78
2019-05-29T06:38:01.953Z,57.27
2019-05-29T06:40:34.087Z,56.65
2019-05-29T06:43:00.036Z,56.86
2019-05-29T06:45:31.553Z,56.47
2019-05-29T06:47:57.415Z,56.05
2019-05-29T06:50:23.274Z,54.72
2019-05-29T06:52:49.171Z,54.11
2019-05-29T06:55:15.050Z,53.92
2019-05-29T06:57:42.653Z,53.23
2019-05-29T07:00:08.938Z,53.99
2019-05-29T07:02:34.850Z,52.76
2019-05-29T07:05:00.689Z,53.07
2019-05-29T07:07:26.553Z,51.69
2019-05-29T07:09:52.439Z,51.56
2019-05-29T07:12:18.309Z,49.98
2019-05-29T07:14:44.555Z,51.31
2019-05-29T07:17:10.458Z,50.49
2019-05-29T07:19:48.994Z,50.15
2019-05-29T07:22:04.082Z,49.77
2019-05-29T07:24:29.942Z,50.57
2019-05-29T07:26:55.809Z,49.48
2019-05-29T07:29:21.679Z,48.82
2019-05-29T07:31:47.696Z,48.96
2019-05-29T07:34:13.558Z,47.95
2019-05-29T07:36:39.895Z,48.46
2019-05-29T07:39:06.525Z,48.17
2019-05-29T07:41:32.382Z,49.27
2019-05-29T07:43:58.259Z,49.51
2019-05-29T07:46:24.116Z,47.14
2019-05-29T07:48:50.590Z,46.62
2019-05-29T07:51:16.695Z,45.08
2019-05-29T07:53:42.555Z,44.84
2019-05-29T07:56:21.570Z,46.07
2019-05-29T07:58:36.297Z,45.72
2019-05-29T08:01:12.661Z,44.85
2019-05-29T08:03:30.135Z,45.36
2019-05-29T08:05:55.986Z,45.58
2019-05-29T08:08:21.835Z,46.02
2019-05-29T08:10:47.707Z,46.69
2019-05-29T08:13:13.564Z,47.01
2019-05-29T08:15:55.282Z,44.57
2019-05-29T08:18:07.248Z,45.55
2019-05-29T08:20:33.117Z,43.87
2019-05-29T08:22:58.976Z,43.69
2019-05-29T08:25:24.833Z,42.77
2019-05-29T08:27:50.871Z,43.63
2019-05-29T08:30:17.047Z,43.33
2019-05-29T08:32:43.572Z,43.32
2019-05-29T08:35:10.428Z,42.37
2019-05-29T08:37:36.308Z,43.17
2019-05-29T08:40:07.212Z,42.98
2019-05-29T08:42:33.110Z,42.39
2019-05-29T08:44:59.080Z,41.86
2019-05-29T08:47:24.934Z,41.48
2019-05-29T08:49:54.027Z,42.11
2019-05-29T08:52:18.609Z,41.39
2019-05-29T08:54:44.486Z,40.43
2019-05-29T08:57:10.355Z,40.81
2019-05-29T08:59:36.215Z,40.79
2019-05-29T09:02:02.099Z,40.75
2019-05-29T09:04:27.983Z,41.24
2019-05-29T09:06:53.858Z,41.27
2019-05-29T09:09:19.711Z,40.43
2019-05-29T09:11:45.567Z,41.77
2019-05-29T09:14:11.421Z,40.97
2019-05-29T09:16:37.288Z,40.71
2019-05-29T09:19:03.269Z,41.07
2019-05-29T09:21:29.171Z,40.18
2019-05-29T09:23:58.537Z,40.01
2019-05-29T09:26:25.525Z,41.66
2019-05-29T09:28:50.601Z,40.05
2019-05-29T09:31:18.189Z,40.69
2019-05-29T09:33:44.224Z,39.77
2019-05-29T09:36:10.075Z,40.53
2019-05-29T09:38:36.776Z,41.15
2019-05-29T09:41:02.660Z,41.26
2019-05-29T09:43:30.787Z,41.63
2019-05-29T09:45:56.274Z,41.60
2019-05-29T09:48:26.539Z,41.71
2019-05-29T09:50:50.906Z,40.91
2019-05-29T09:53:16.796Z,40.62
2019-05-29T09:55:42.758Z,41.84
2019-05-29T09:58:08.675Z,41.76
2019-05-29T10:00:34.537Z,43.31
2019-05-29T10:03:01.412Z,42.64
2019-05-29T10:05:27.449Z,41.19
2019-05-29T10:07:54.525Z,40.86
2019-05-29T10:10:22.669Z,41.70
2019-05-29T10:12:48.523Z,41.34
2019-05-29T10:15:15.032Z,41.93
2019-05-29T10:17:41.085Z,39.75
2019-05-29T10:20:09.039Z,40.46
2019-05-29T10:22:34.899Z,39.65
2019-05-29T10:25:01.962Z,40.80
2019-05-29T10:27:27.931Z,40.25
2019-05-29T10:29:54.321Z,42.02
2019-05-29T10:32:20.320Z,42.00
2019-05-29T10:34:46.333Z,43.16
2019-05-29T10:37:12.258Z,43.14
2019-05-29T10:39:38.144Z,42.28
2019-05-29T10:42:04.109Z,42.00
2019-05-29T10:44:29.970Z,41.57
2019-05-29T10:46:56.516Z,42.15
2019-05-29T10:49:22.743Z,41.26
2019-05-29T10:52:05.783Z,41.05
2019-05-29T10:54:16.587Z,40.07
2019-05-29T10:56:42.577Z,40.37
2019-05-29T10:59:08.434Z,41.35
2019-05-29T11:01:34.703Z,39.06
2019-05-29T11:04:00.550Z,40.35
2019-05-29T11:06:26.406Z,40.25
2019-05-29T11:08:52.259Z,39.22
2019-05-29T11:11:18.116Z,38.24
2019-05-29T11:13:43.966Z,38.88
2019-05-29T11:16:09.824Z,38.69
2019-05-29T11:18:35.678Z,37.99
2019-05-29T11:21:01.607Z,38.19
2019-05-29T11:23:27.630Z,38.89
2019-05-29T11:25:54.036Z,39.60
2019-05-29T11:28:19.906Z,39.86
2019-05-29T11:30:45.767Z,38.59
2019-05-29T11:33:11.687Z,37.38
2019-05-29T11:35:37.618Z,37.67
2019-05-29T11:38:03.482Z,37.50
2019-05-29T11:40:29.702Z,37.08
2019-05-29T11:42:56.915Z,36.43
2019-05-29T11:48:19.856Z,36.67
2019-05-29T11:50:45.710Z,37.28
2019-05-29T11:53:11.564Z,37.19
2019-05-29T11:55:38.289Z,37.09
2019-05-29T11:58:04.369Z,36.35
2019-05-29T12:00:30.515Z,36.47
2019-05-29T12:02:57.650Z,36.78
2019-05-29T12:05:23.938Z,37.45
2019-05-29T12:07:51.412Z,37.06
2019-05-29T12:10:18.347Z,38.04
2019-05-29T12:12:44.283Z,37.91
2019-05-29T12:15:14.982Z,39.43
2019-05-29T12:17:39.051Z,37.89
2019-05-29T12:20:26.624Z,38.17
2019-05-29T12:22:33.821Z,38.06
2019-05-29T12:25:00.680Z,37.24
2019-05-29T12:27:26.654Z,37.00
2019-05-29T12:29:52.652Z,34.72
2019-05-29T12:32:18.616Z,35.32
2019-05-29T12:34:53.097Z,35.63
2019-05-29T12:37:12.217Z,36.62
2019-05-29T12:39:38.079Z,36.73
2019-05-29T12:42:03.941Z,37.39
2019-05-29T12:44:29.805Z,37.24
2019-05-29T12:46:55.655Z,36.79
2019-05-29T12:49:21.532Z,37.31
2019-05-29T12:51:47.388Z,36.67
2019-05-29T12:54:13.238Z,37.29
2019-05-29T12:56:39.118Z,37.16
2019-05-29T12:59:05.157Z,36.92
2019-05-29T13:01:31.021Z,36.25
2019-05-29T13:03:58.524Z,38.31
2019-05-29T13:06:24.601Z,38.45
2019-05-29T13:08:50.451Z,38.63
2019-05-29T13:11:16.366Z,37.68
2019-05-29T13:13:42.234Z,37.91
2019-05-29T13:16:08.085Z,39.12
2019-05-29T13:18:33.958Z,38.91
2019-05-29T13:21:00.886Z,39.10
2019-05-29T13:23:26.878Z,39.73
2019-05-29T13:25:52.751Z,38.85
2019-05-29T13:28:18.618Z,37.71
2019-05-29T13:30:44.478Z,38.70
2019-05-29T13:33:10.550Z,38.54
2019-05-29T13:35:36.490Z,37.61
2019-05-29T13:38:03.272Z,38.57
2019-05-29T13:40:29.307Z,38.21
2019-05-29T13:42:56.229Z,37.10
2019-05-29T13:45:23.816Z,36.57
2019-05-29T13:47:49.894Z,37.94
2019-05-29T13:50:16.750Z,37.52
2019-05-29T13:52:42.642Z,36.58
2019-05-29T13:55:08.960Z,37.35
2019-05-29T13:57:34.810Z,37.27
2019-05-29T14:00:06.147Z,37.81
2019-05-29T14:02:28.432Z,37.35
2019-05-29T14:04:54.309Z,36.98
2019-05-29T14:07:20.291Z,37.37
2019-05-29T14:09:46.170Z,36.30
2019-05-29T14:12:12.012Z,34.64
2019-05-29T14:14:37.867Z,35.36
2019-05-29T14:17:04.583Z,34.91
2019-05-29T14:19:30.594Z,35.15
2019-05-29T14:21:56.551Z,35.11
2019-05-29T14:24:29.256Z,35.36
2019-05-29T14:26:50.158Z,35.17
2019-05-29T14:29:16.027Z,34.98
2019-05-29T14:31:41.877Z,35.40
2019-05-29T14:34:07.741Z,35.24
2019-05-29T14:36:33.606Z,37.00
2019-05-29T14:38:59.470Z,36.63
2019-05-29T14:41:25.372Z,36.48
2019-05-29T14:43:51.355Z,35.61
2019-05-29T14:46:17.271Z,35.95
2019-05-29T14:48:43.125Z,35.81
2019-05-29T14:51:10.503Z,36.89
2019-05-29T14:53:36.459Z,37.06
2019-05-29T14:56:02.557Z,37.64
2019-05-29T14:58:28.500Z,35.98
2019-05-29T15:00:54.355Z,36.14
2019-05-29T15:03:20.215Z,37.08
2019-05-29T15:05:46.076Z,37.59
2019-05-29T15:08:12.086Z,38.16
2019-05-29T15:10:38.283Z,37.61
2019-05-29T15:13:04.418Z,38.21
2019-05-29T15:15:30.299Z,38.72
2019-05-29T15:17:56.151Z,37.87
2019-05-29T15:20:21.998Z,38.33
2019-05-29T15:22:48.023Z,39.49
2019-05-29T15:25:23.515Z,39.22
2019-05-29T15:27:42.370Z,40.43
2019-05-29T15:30:10.953Z,39.59
2019-05-29T15:32:36.796Z,39.64
2019-05-29T15:35:06.534Z,39.07
2019-05-29T15:37:32.575Z,39.60
2019-05-29T15:39:58.452Z,39.72
2019-05-29T15:42:24.360Z,40.81
2019-05-29T15:44:50.242Z,39.62
2019-05-29T15:47:17.188Z,39.87
2019-05-29T15:49:43.199Z,40.03
2019-05-29T15:52:09.094Z,40.68
2019-05-29T15:54:34.956Z,39.44
2019-05-29T15:57:00.812Z,38.06
2019-05-29T15:59:26.684Z,37.96
2019-05-29T16:01:52.642Z,37.93
2019-05-29T16:04:18.527Z,38.92
2019-05-29T16:06:44.666Z,38.22
2019-05-29T16:09:12.787Z,38.19
2019-05-29T16:11:38.636Z,38.50
2019-05-29T16:14:04.630Z,37.35
2019-05-29T16:16:30.508Z,37.69
2019-05-29T16:18:56.351Z,37.08
2019-05-29T16:21:23.167Z,37.67
2019-05-29T16:23:49.173Z,37.51
2019-05-29T16:26:15.180Z,37.68
2019-05-29T16:28:41.114Z,38.18
2019-05-29T16:31:06.996Z,38.17
2019-05-29T16:33:33.054Z,38.10
2019-05-29T16:35:58.981Z,37.56
2019-05-29T16:38:24.869Z,37.37
2019-05-29T16:40:50.751Z,37.58
2019-05-29T16:43:18.055Z,38.54
2019-05-29T16:45:44.027Z,38.23
2019-05-29T16:48:09.917Z,39.15
2019-05-29T16:50:35.790Z,39.35
2019-05-29T16:53:01.652Z,40.03
2019-05-29T16:55:27.518Z,40.11
2019-05-29T16:57:53.398Z,40.15
2019-05-29T17:00:21.506Z,40.70
2019-05-29T17:02:47.622Z,40.37
2019-05-29T17:05:13.937Z,41.14
2019-05-29T17:07:39.836Z,40.41
2019-05-29T17:10:06.293Z,40.23
2019-05-29T17:12:32.208Z,41.15
2019-05-29T17:14:58.059Z,41.13
2019-05-29T17:17:24.763Z,42.02
2019-05-29T17:19:50.760Z,41.54
2019-05-29T17:22:16.643Z,40.95
2019-05-29T17:24:42.557Z,40.50
2019-05-29T17:27:08.415Z,40.31
2019-05-29T17:29:34.289Z,41.08
2019-05-29T17:32:00.152Z,41.27
2019-05-29T17:34:26.008Z,42.03
2019-05-29T17:36:51.899Z,42.11
2019-05-29T17:39:19.906Z,41.65
2019-05-29T17:41:45.543Z,41.38
2019-05-29T17:44:11.419Z,41.18
2019-05-29T17:46:37.428Z,41.70
2019-05-29T17:49:03.553Z,42.45
2019-05-29T17:51:29.445Z,41.41
2019-05-29T17:53:55.387Z,42.07
2019-05-29T17:56:33.701Z,42.02
2019-05-29T17:58:50.003Z,42.32
2019-05-29T18:01:16.176Z,42.54
2019-05-29T18:03:42.109Z,43.06
2019-05-29T18:06:07.969Z,43.59
2019-05-29T18:08:33.821Z,43.11
2019-05-29T18:10:59.677Z,42.22
2019-05-29T18:13:25.640Z,43.54
2019-05-29T18:15:51.505Z,43.94
2019-05-29T18:18:17.536Z,44.34
2019-05-29T18:20:43.430Z,44.79
2019-05-29T18:23:09.286Z,44.60
2019-05-29T18:25:35.138Z,43.91
2019-05-29T18:28:01.757Z,44.08
2019-05-29T18:30:28.766Z,44.45
2019-05-29T18:32:54.785Z,44.48
2019-05-29T18:35:20.816Z,44.31
2019-05-29T18:37:46.804Z,44.97
2019-05-29T18:40:13.032Z,45.69
2019-05-29T18:42:38.843Z,45.46
2019-05-29T18:45:19.608Z,45.60
2019-05-29T18:47:35.745Z,45.66
2019-05-29T18:50:04.156Z,45.98
2019-05-29T18:52:30.009Z,46.62
2019-05-29T18:54:55.887Z,46.81
2019-05-29T18:57:22.887Z,47.50
2019-05-29T18:59:48.870Z,47.74
2019-05-29T19:02:14.736Z,46.99
2019-05-29T19:04:40.592Z,47.72
2019-05-29T19:07:06.513Z,47.37
2019-05-29T19:09:32.522Z,46.57
2019-05-29T19:12:00.462Z,47.14
2019-05-29T19:14:27.887Z,47.13
2019-05-29T19:16:53.825Z,47.38
2019-05-29T19:19:19.680Z,47.59
2019-05-29T19:21:45.535Z,47.87
2019-05-29T19:24:11.424Z,47.88
2019-05-29T19:26:37.304Z,48.46
2019-05-29T19:29:03.277Z,48.08
2019-05-29T19:31:29.178Z,47.79
2019-05-29T19:33:55.033Z,47.47
2019-05-29T19:36:20.881Z,47.75
2019-05-29T19:38:46.763Z,47.89
2019-05-29T19:41:12.651Z,48.90
2019-05-29T19:43:38.502Z,49.13
2019-05-29T19:46:04.386Z,49.14
2019-05-29T19:48:30.875Z,49.17
2019-05-29T19:50:58.918Z,49.04
2019-05-29T19:53:26.867Z,49.19
2019-05-29T19:55:52.545Z,48.76
2019-05-29T19:58:18.448Z,48.66
2019-05-29T20:00:44.377Z,48.72
2019-05-29T20:03:10.230Z,48.70
2019-05-29T20:05:36.999Z,49.06
2019-05-29T20:08:03.255Z,49.01
2019-05-29T20:10:29.270Z,49.07
2019-05-29T20:12:55.149Z,49.21
2019-05-29T20:15:21.002Z,49.42
2019-05-29T20:17:48.797Z,49.54
2019-05-29T20:20:14.888Z,49.96
2019-05-29T20:22:40.743Z,50.39
2019-05-29T20:25:07.429Z,50.64
2019-05-29T20:27:34.188Z,50.97
2019-05-29T20:30:00.142Z,51.69
2019-05-29T20:32:26.006Z,51.60
2019-05-29T20:34:51.889Z,52.19
2019-05-29T20:37:17.758Z,52.39
2019-05-29T20:39:43.605Z,52.63
2019-05-29T20:42:09.466Z,52.91
2019-05-29T20:44:36.681Z,53.35
2019-05-29T20:47:03.122Z,53.20
2019-05-29T20:49:28.997Z,53.17
2019-05-29T20:51:54.851Z,53.53
2019-05-29T20:54:20.716Z,53.38
2019-05-29T20:56:46.582Z,53.54
2019-05-29T20:59:12.430Z,55.29
2019-05-29T21:01:44.258Z,54.09
2019-05-29T21:04:06.204Z,54.88
2019-05-29T21:06:32.447Z,54.67
2019-05-29T21:08:58.416Z,54.76
2019-05-29T21:11:24.304Z,54.50
2019-05-29T21:13:50.162Z,55.37
2019-05-29T21:16:16.057Z,55.83
2019-05-29T21:18:42.231Z,55.75
2019-05-29T21:21:08.218Z,56.03
2019-05-29T21:23:34.277Z,56.62
2019-05-29T21:26:00.238Z,57.69
2019-05-29T21:28:39.246Z,57.63
2019-05-29T21:30:53.889Z,57.93
2019-05-29T21:33:19.910Z,57.58
2019-05-29T21:35:46.394Z,57.31
2019-05-29T21:38:12.308Z,57.57
2019-05-29T21:40:38.321Z,57.61
2019-05-29T21:43:04.230Z,57.63
2019-05-29T21:45:30.216Z,57.87
2019-05-29T21:47:56.094Z,58.59
2019-05-29T21:50:21.945Z,58.06
2019-05-29T21:52:47.814Z,57.51
2019-05-29T21:55:13.789Z,57.89
2019-05-29T21:57:42.310Z,58.44
2019-05-29T22:00:11.042Z,58.61
2019-05-29T22:02:38.229Z,58.63
2019-05-29T22:05:05.881Z,59.43
2019-05-29T22:07:32.704Z,59.65
2019-05-29T22:09:58.786Z,59.21
2019-05-29T22:12:24.719Z,58.90
2019-05-29T22:14:51.289Z,58.85
2019-05-29T22:17:17.844Z,59.16
2019-05-29T22:19:43.745Z,60.38
2019-05-29T22:22:09.617Z,60.53
2019-05-29T22:24:35.473Z,60.26
2019-05-29T22:27:01.568Z,60.12
2019-05-29T22:29:27.500Z,60.58
2019-05-29T22:31:53.441Z,60.10
2019-05-29T22:34:19.338Z,60.40
2019-05-29T22:36:45.189Z,60.03
2019-05-29T22:39:11.048Z,60.61
2019-05-29T22:41:36.919Z,60.54
2019-05-29T22:44:02.985Z,60.95
2019-05-29T22:46:28.842Z,61.02
2019-05-29T22:48:55.918Z,60.30
2019-05-29T22:51:21.753Z,61.05
2019-05-29T22:53:47.641Z,61.12
2019-05-29T22:56:13.496Z,61.26
2019-05-29T22:58:39.373Z,61.18
2019-05-29T23:01:05.217Z,61.44
2019-05-29T23:03:31.073Z,60.96
2019-05-29T23:06:00.408Z,60.92
2019-05-29T23:08:26.920Z,61.56
2019-05-29T23:10:53.040Z,61.54
2019-05-29T23:13:19.943Z,61.71
2019-05-29T23:15:45.826Z,61.96
2019-05-29T23:18:11.677Z,61.75
2019-05-29T23:20:37.532Z,61.93
2019-05-29T23:23:03.404Z,62.29
2019-05-29T23:25:29.283Z,62.13
2019-05-29T23:27:55.134Z,62.00
2019-05-29T23:30:20.990Z,61.94
2019-05-29T23:32:46.847Z,61.56
2019-05-29T23:35:12.795Z,62.31
2019-05-29T23:37:40.629Z,62.52
2019-05-29T23:40:07.912Z,61.73
2019-05-29T23:42:33.961Z,62.57
2019-05-29T23:47:30.112Z,62.37
2019-05-29T23:49:55.982Z,61.80
2019-05-29T23:52:21.844Z,62.74
2019-05-29T23:54:47.718Z,62.72
2019-05-29T23:57:13.603Z,62.71
2019-05-29T23:59:39.449Z,62.22
